Time;durP1;ratioP1;P1;durP2;ratioP2;P2;SDS_P1;SDS_P2;PMS_P1;PMS_P2;Temp;Humidity;BMP_temperature;BMP_pressure;BME280_temperature;BME280_humidity;BME280_pressure;Samples;Min_cycle;Max_cycle;Signal;HPM_P1;HPM_P2
2022/06/03 00:00:23;;;;;;;4.58;1.90;;;21.50;99.90;;;;;;2014667;70;21394;-92
2022/06/03 00:06:24;;;;;;;4.12;2.02;;;21.50;99.90;;;;;;1945895;72;22288;-91
2022/06/03 00:13:58;;;;;;;4.05;1.80;;;21.40;99.90;;;;;;1989147;70;22125;-91
2022/06/03 00:17:12;;;;;;;4.62;2.05;;;21.50;99.90;;;;;;1967265;72;21206;-92
2022/06/03 00:20:31;;;;;;;5.95;2.20;;;21.50;99.90;;;;;;2033246;70;21603;-91
2022/06/03 00:23:36;;;;;;;6.55;2.08;;;21.50;99.90;;;;;;2055333;69;21115;-91
2022/06/03 00:27:00;;;;;;;3.92;2.50;;;21.50;99.90;;;;;;2034196;69;21154;-91
2022/06/03 00:57:20;;;;;;;3.05;2.27;;;21.40;99.90;;;;;;1968881;72;22214;-92
2022/06/03 01:03:18;;;;;;;3.22;2.60;;;21.30;99.90;;;;;;1929176;72;22200;-91
2022/06/03 01:06:39;;;;;;;5.72;2.55;;;21.30;99.90;;;;;;1896251;75;21071;-91
2022/06/03 01:14:06;;;;;;;5.12;2.40;;;21.20;99.90;;;;;;1923105;74;22266;-91
2022/06/03 01:17:24;;;;;;;3.42;2.12;;;21.20;99.90;;;;;;1895687;75;21051;-91
2022/06/03 01:20:39;;;;;;;3.58;2.40;;;21.10;99.90;;;;;;1899864;75;21206;-91
2022/06/03 01:24:08;;;;;;;6.35;2.35;;;21.10;99.90;;;;;;1930422;73;21167;-92
2022/06/03 01:27:51;;;;;;;3.87;2.17;;;21.00;99.90;;;;;;1855500;75;21441;-92
2022/06/03 01:30:53;;;;;;;4.97;2.30;;;20.90;99.90;;;;;;1865745;76;21094;-92
2022/06/03 01:33:54;;;;;;;2.62;2.35;;;20.90;99.90;;;;;;1908382;74;21183;-92
2022/06/03 01:36:54;;;;;;;4.37;2.47;;;20.90;99.90;;;;;;1916962;73;21165;-92
2022/06/03 01:40:33;;;;;;;3.58;2.25;;;20.90;99.90;;;;;;1913760;74;21148;-92
2022/06/03 01:43:44;;;;;;;3.55;2.33;;;20.90;99.90;;;;;;1930086;73;21102;-92
2022/06/03 01:46:39;;;;;;;4.00;2.67;;;20.80;99.90;;;;;;1916227;73;21144;-91
2022/06/03 01:50:02;;;;;;;4.40;2.70;;;20.80;99.90;;;;;;1926511;73;21156;-93
2022/06/03 01:53:30;;;;;;;5.90;2.80;;;20.80;99.90;;;;;;1895538;75;21115;-92
2022/06/03 01:56:47;;;;;;;8.38;3.40;;;20.70;99.90;;;;;;1821290;76;21617;-93
2022/06/03 02:18:12;;;;;;;3.92;2.60;;;20.70;99.90;;;;;;2010373;70;22241;-91
2022/06/03 02:24:51;;;;;;;4.85;2.75;;;20.60;99.90;;;;;;1932185;72;28075;-92
2022/06/03 02:28:24;;;;;;;3.25;2.17;;;20.90;99.90;;;;;;1910657;73;21110;-91
2022/06/03 03:03:01;;;;;;;9.63;3.02;;;20.50;99.90;;;;;;1945253;72;22157;-92
2022/06/03 03:07:01;;;;;;;9.78;2.87;;;20.50;99.90;;;;;;1918069;75;21196;-91
2022/06/03 03:10:37;;;;;;;3.75;2.58;;;20.60;99.90;;;;;;1917496;74;21072;-92
2022/06/03 03:13:38;;;;;;;4.15;2.50;;;20.50;99.90;;;;;;1917977;73;21124;-92
2022/06/03 03:17:14;;;;;;;3.67;2.60;;;20.50;99.90;;;;;;1946217;73;21207;-91
2022/06/03 03:20:41;;;;;;;5.47;2.60;;;20.50;99.90;;;;;;1926244;73;21125;-92
2022/06/03 03:29:57;;;;;;;3.12;2.67;;;20.50;99.90;;;;;;1961190;71;22271;-92
2022/06/03 03:33:30;;;;;;;3.27;2.27;;;20.30;99.90;;;;;;1919004;73;21105;-91
2022/06/03 03:37:13;;;;;;;6.70;2.42;;;20.30;99.90;;;;;;1996841;70;21074;-91
2022/06/03 03:40:57;;;;;;;2.37;1.87;;;20.20;99.90;;;;;;2002670;70;21054;-91
2022/06/03 03:44:15;;;;;;;4.37;2.20;;;20.10;99.90;;;;;;1880722;70;21095;-91
2022/06/03 03:48:00;;;;;;;3.00;2.25;;;20.10;99.90;;;;;;1996420;72;21038;-92
2022/06/03 04:08:13;;;;;;;5.08;2.30;;;20.10;99.90;;;;;;1991904;71;22104;-91
2022/06/03 04:11:52;;;;;;;3.55;1.98;;;20.00;99.90;;;;;;1954070;73;21129;-92
2022/06/03 04:15:54;;;;;;;8.65;2.30;;;20.10;99.90;;;;;;2044938;69;21086;-91
2022/06/03 04:19:03;;;;;;;2.50;1.90;;;20.20;99.90;;;;;;2066257;69;21616;-92
2022/06/03 04:22:53;;;;;;;5.23;2.50;;;20.20;99.90;;;;;;2033659;70;21498;-92
2022/06/03 04:26:03;;;;;;;6.12;2.50;;;20.10;99.90;;;;;;2033077;69;21760;-91
2022/06/03 04:29:02;;;;;;;5.45;2.08;;;20.10;99.90;;;;;;2055126;69;21022;-92
2022/06/03 04:32:24;;;;;;;5.22;1.92;;;20.10;99.90;;;;;;2035861;69;21135;-91
2022/06/03 04:35:52;;;;;;;4.33;2.10;;;20.10;99.90;;;;;;2036463;70;21091;-91
2022/06/03 04:39:21;;;;;;;4.00;2.00;;;20.20;99.90;;;;;;2062840;69;21058;-92
2022/06/03 04:42:40;;;;;;;2.90;2.02;;;20.10;99.90;;;;;;2031609;70;21069;-92
2022/06/03 04:46:18;;;;;;;3.50;1.77;;;20.20;99.90;;;;;;2053243;69;21091;-92
2022/06/03 05:04:00;;;;;;;4.67;2.08;;;20.10;99.90;;;;;;1954610;71;22242;-92
2022/06/03 05:08:01;;;;;;;3.45;2.17;;;20.20;99.90;;;;;;1981139;71;21111;-93
2022/06/03 05:11:57;;;;;;;6.90;2.12;;;20.30;99.90;;;;;;1903001;72;21124;-92
2022/06/03 05:15:38;;;;;;;3.62;2.00;;;20.40;99.90;;;;;;1927967;72;21062;-92
2022/06/03 05:22:37;;;;;;;6.62;2.17;;;20.50;99.90;;;;;;1964877;72;22124;-91
2022/06/03 05:26:36;;;;;;;3.80;2.25;;;20.50;99.90;;;;;;1927790;73;21034;-91
2022/06/03 05:33:18;;;;;;;3.25;2.17;;;20.60;99.90;;;;;;1958204;72;22091;-89
2022/06/03 05:39:58;;;;;;;4.15;2.30;;;20.70;99.90;;;;;;1951368;72;22174;-90
2022/06/03 05:43:55;;;;;;;4.10;2.12;;;20.60;99.90;;;;;;1905327;75;21142;-90
2022/06/03 05:47:08;;;;;;;9.07;2.80;;;20.70;99.90;;;;;;1906126;74;21079;-89
2022/06/03 05:50:03;;;;;;;5.42;1.90;;;20.80;99.90;;;;;;1920905;74;21052;-89
2022/06/03 05:53:23;;;;;;;7.65;2.60;;;20.80;99.90;;;;;;1919719;74;21115;-89
2022/06/03 05:59:38;;;;;;;3.67;2.05;;;21.20;99.90;;;;;;1926223;72;22113;-89
2022/06/03 06:03:02;;;;;;;6.17;2.02;;;21.30;99.90;;;;;;1906208;75;21156;-89
2022/06/03 06:06:31;;;;;;;3.60;1.98;;;21.40;99.90;;;;;;1892791;75;21101;-88
2022/06/03 06:12:22;;;;;;;4.40;1.92;;;21.30;99.90;;;;;;1939043;72;22255;-88
2022/06/03 06:15:51;;;;;;;2.90;1.80;;;21.40;99.90;;;;;;1897290;74;21082;-90
2022/06/03 06:19:06;;;;;;;4.80;2.25;;;21.50;99.90;;;;;;1900294;75;21064;-89
2022/06/03 06:22:09;;;;;;;6.12;2.25;;;21.50;99.90;;;;;;1905398;75;21152;-89
2022/06/03 06:25:24;;;;;;;5.00;2.22;;;21.60;99.90;;;;;;1910238;74;21113;-88
2022/06/03 06:28:24;;;;;;;5.03;2.20;;;21.60;99.90;;;;;;1882750;76;21074;-89
2022/06/03 06:31:30;;;;;;;5.83;2.55;;;21.70;99.90;;;;;;1909455;75;21070;-88
2022/06/03 06:37:39;;;;;;;4.80;2.55;;;21.90;99.90;;;;;;1941762;72;22158;-89
2022/06/03 06:40:56;;;;;;;6.85;2.70;;;21.90;99.90;;;;;;1884602;75;21117;-89
2022/06/03 06:44:10;;;;;;;6.70;2.65;;;22.00;99.90;;;;;;1874920;75;21084;-89
2022/06/03 06:47:08;;;;;;;5.78;2.30;;;22.00;99.90;;;;;;1875448;75;21629;-89
2022/06/03 06:50:22;;;;;;;6.03;2.40;;;22.00;99.90;;;;;;1878713;75;21052;-89
2022/06/03 06:53:18;;;;;;;7.45;2.83;;;22.10;99.90;;;;;;1903904;75;21200;-89
2022/06/03 06:58:56;;;;;;;4.67;2.33;;;22.20;99.90;;;;;;1967579;72;22286;-89
2022/06/03 07:02:10;;;;;;;6.25;2.60;;;22.30;99.90;;;;;;1917831;73;21060;-88
2022/06/03 07:05:24;;;;;;;4.92;2.50;;;22.40;99.90;;;;;;1922601;73;21148;-88
2022/06/03 07:08:19;;;;;;;5.15;2.12;;;22.40;99.90;;;;;;1928650;73;21098;-89
2022/06/03 07:14:11;;;;;;;4.72;2.40;;;22.50;99.90;;;;;;1943794;72;22297;-88
2022/06/03 07:23:42;;;;;;;6.60;2.85;;;22.80;99.90;;;;;;1928818;72;27961;-88
2022/06/03 07:26:56;;;;;;;5.60;2.22;;;23.00;99.90;;;;;;1917531;75;21555;-88
2022/06/03 07:32:57;;;;;;;4.03;2.50;;;23.30;99.90;;;;;;1934485;72;22205;-89
2022/06/03 07:36:11;;;;;;;4.72;2.42;;;23.40;99.90;;;;;;1900927;75;21030;-88
2022/06/03 07:42:19;;;;;;;4.33;3.00;;;23.60;99.90;;;;;;1935276;72;22263;-89
2022/06/03 07:48:27;;;;;;;4.55;2.30;;;23.50;99.90;;;;;;1965165;72;22167;-89
2022/06/03 07:51:41;;;;;;;4.65;2.08;;;23.40;99.90;;;;;;1934402;73;21098;-89
2022/06/03 07:54:56;;;;;;;3.25;2.47;;;23.10;99.90;;;;;;1920458;73;21060;-88
2022/06/03 07:57:52;;;;;;;5.65;2.10;;;23.00;99.90;;;;;;1917609;73;21060;-89
2022/06/03 08:01:03;;;;;;;7.10;2.35;;;22.90;99.90;;;;;;1925867;73;21027;-88
2022/06/03 08:03:55;;;;;;;3.87;2.20;;;22.90;99.90;;;;;;1948368;73;21039;-89
2022/06/03 08:13:04;;;;;;;5.87;2.92;;;22.60;99.90;;;;;;1899298;75;21027;-88
2022/06/03 08:16:17;;;;;;;7.60;2.55;;;22.50;99.90;;;;;;1888475;75;21051;-88
2022/06/03 08:19:13;;;;;;;8.28;2.42;;;22.30;99.90;;;;;;1898125;75;21160;-88
2022/06/03 08:22:26;;;;;;;7.60;2.52;;;22.20;99.90;;;;;;1882117;75;21367;-88
2022/06/03 08:28:02;;;;;;;5.58;2.27;;;22.10;99.90;;;;;;1939487;72;22201;-87
2022/06/03 08:31:15;;;;;;;3.22;2.27;;;22.10;99.90;;;;;;1903186;75;21130;-89
2022/06/03 08:37:08;;;;;;;5.53;2.50;;;22.20;99.90;;;;;;1936876;72;22295;-88
2022/06/03 08:43:09;;;;;;;7.47;3.25;;;21.90;99.90;;;;;;1941418;72;22221;-90
2022/06/03 08:46:21;;;;;;;10.65;3.67;;;21.90;99.90;;;;;;1911547;75;21109;-89
2022/06/03 08:49:34;;;;;;;6.00;3.33;;;21.80;99.90;;;;;;1899774;75;21184;-89
2022/06/03 08:52:30;;;;;;;9.70;3.10;;;21.70;99.90;;;;;;1906067;75;21171;-88
2022/06/03 08:55:45;;;;;;;4.65;2.75;;;21.60;99.90;;;;;;1894475;75;21106;-90
2022/06/03 08:58:43;;;;;;;9.20;3.47;;;21.50;99.90;;;;;;1894032;75;21071;-90
2022/06/03 09:01:39;;;;;;;8.20;3.40;;;21.60;99.90;;;;;;1901360;75;21163;-89
2022/06/03 09:04:34;;;;;;;;;;;21.80;99.90;;;;;;1910405;75;21127;-89
2022/06/03 09:23:59;;;;;;;9.18;3.98;;;22.30;99.90;;;;;;1932389;72;22141;-89
2022/06/03 09:27:13;;;;;;;13.83;4.17;;;22.40;99.90;;;;;;1888105;75;21051;-89
2022/06/03 09:33:17;;;;;;;6.03;3.95;;;22.10;99.90;;;;;;1955732;72;22220;-88
2022/06/03 09:36:29;;;;;;;5.40;3.65;;;22.10;99.90;;;;;;1895673;74;21161;-82
2022/06/03 09:39:40;;;;;;;5.95;3.70;;;22.20;99.90;;;;;;1895641;75;21076;-82
2022/06/03 09:42:33;;;;;;;6.10;4.90;;;22.10;99.90;;;;;;1895428;75;21121;-82
2022/06/03 09:45:46;;;;;;;7.30;4.67;;;21.90;99.90;;;;;;1895568;75;21071;-82
2022/06/03 09:48:41;;;;;;;7.42;4.42;;;22.00;99.90;;;;;;1917619;75;21098;-82
2022/06/03 09:54:47;;;;;;;6.30;4.85;;;22.10;99.90;;;;;;1901146;75;21179;-82
2022/06/03 09:57:41;;;;;;;9.63;3.75;;;22.30;99.90;;;;;;1896433;75;21146;-82
2022/06/03 10:00:40;;;;;;;7.00;4.20;;;22.50;99.90;;;;;;1895418;75;21059;-82
2022/06/03 10:03:32;;;;;;;10.93;5.72;;;22.60;99.90;;;;;;1895618;75;21230;-82
2022/06/03 10:12:50;;;;;;;8.63;5.50;;;23.10;99.90;;;;;;1899291;75;21059;-82
2022/06/03 10:15:46;;;;;;;9.20;5.10;;;23.20;99.90;;;;;;1899493;75;21090;-82
2022/06/03 10:18:41;;;;;;;8.48;4.35;;;23.10;99.90;;;;;;1895556;75;21928;-82
2022/06/03 10:21:33;;;;;;;11.80;5.20;;;23.30;99.90;;;;;;1895269;75;21091;-82
2022/06/03 10:27:10;;;;;;;9.95;5.78;;;23.30;99.90;;;;;;1958123;72;22212;-82
2022/06/03 10:30:28;;;;;;;10.35;5.95;;;23.40;99.90;;;;;;1886796;75;21083;-82
2022/06/03 10:33:38;;;;;;;7.60;4.55;;;23.40;99.90;;;;;;1887361;75;21075;-82
2022/06/03 10:36:34;;;;;;;6.33;4.42;;;23.60;99.90;;;;;;1874631;75;21063;-82
2022/06/03 10:39:45;;;;;;;10.15;4.47;;;23.70;99.90;;;;;;1894346;75;21107;-82
2022/06/03 10:42:39;;;;;;;5.15;4.47;;;23.80;99.90;;;;;;1876891;75;21118;-82
2022/06/03 10:45:32;;;;;;;9.75;4.03;;;23.90;99.90;;;;;;1884241;75;21195;-82
2022/06/03 10:48:29;;;;;;;7.42;3.98;;;23.80;99.90;;;;;;1888984;75;21063;-82
2022/06/03 11:01:06;;;;;;;;;;;23.80;99.90;;;;;;1888155;75;21063;-82
2022/06/03 11:03:53;;;;;;;8.95;4.30;;;24.30;99.90;;;;;;1875865;75;21176;-90
2022/06/03 11:06:44;;;;;;;7.40;4.55;;;24.20;99.90;;;;;;1896786;75;21638;-89
2022/06/03 11:09:38;;;;;;;9.65;4.70;;;24.60;99.90;;;;;;1886864;75;21158;-88
2022/06/03 11:12:31;;;;;;;8.45;5.37;;;24.70;99.90;;;;;;1886796;75;21063;-89
2022/06/03 11:15:31;;;;;;;5.83;4.37;;;24.60;99.90;;;;;;1883694;75;21091;-88
2022/06/03 11:18:28;;;;;;;6.50;4.42;;;24.50;99.90;;;;;;1877559;75;21107;-89
2022/06/03 11:21:26;;;;;;;9.63;5.12;;;24.50;99.90;;;;;;1894710;75;21048;-89
2022/06/03 11:24:16;;;;;;;;;;;24.50;99.90;;;;;;1875858;76;21055;-89
2022/06/03 11:27:11;;;;;;;6.40;4.20;;;24.60;99.90;;;;;;1874139;76;20145;-88
2022/06/03 11:30:06;;;;;;;5.65;4.05;;;24.60;99.90;;;;;;1884471;75;21554;-88
2022/06/03 11:33:01;;;;;;;7.50;4.97;;;24.70;99.90;;;;;;1880380;75;21059;-88
2022/06/03 11:35:55;;;;;;;6.97;3.80;;;24.90;99.90;;;;;;1898248;75;21164;-88
2022/06/03 11:38:50;;;;;;;6.40;3.87;;;25.10;99.90;;;;;;1888607;75;21187;-88
2022/06/03 11:41:44;;;;;;;4.42;3.33;;;25.10;99.90;;;;;;1889688;75;21132;-88
2022/06/03 11:47:22;;;;;;;7.12;4.28;;;25.10;99.90;;;;;;1953498;72;22279;-88
2022/06/03 11:50:34;;;;;;;4.95;4.10;;;25.10;99.90;;;;;;1895555;74;21091;-88
2022/06/03 11:53:47;;;;;;;7.25;4.08;;;25.10;99.90;;;;;;1906361;75;21043;-88
2022/06/03 11:56:41;;;;;;;6.20;3.55;;;25.10;99.90;;;;;;1903554;75;21087;-88
2022/06/03 11:59:54;;;;;;;6.33;3.70;;;25.20;99.90;;;;;;1903865;75;21076;-88
2022/06/03 12:02:49;;;;;;;5.97;3.72;;;25.20;99.90;;;;;;1899307;75;21512;-87
2022/06/03 12:05:44;;;;;;;4.33;3.40;;;25.20;99.90;;;;;;1884977;75;21108;-88
2022/06/03 12:08:43;;;;;;;5.17;3.17;;;25.20;99.90;;;;;;1885050;76;21196;-88
2022/06/03 12:14:59;;;;;;;3.98;3.42;;;25.10;99.90;;;;;;1884657;76;21067;-87
2022/06/03 12:17:51;;;;;;;5.08;3.27;;;25.10;99.90;;;;;;1905781;75;21106;-88
2022/06/03 12:20:55;;;;;;;3.62;3.10;;;24.90;99.90;;;;;;1900575;75;21060;-82
2022/06/03 12:23:55;;;;;;;6.20;4.72;;;24.90;99.90;;;;;;1897710;75;21117;-82
2022/06/03 12:26:50;;;;;;;5.42;3.40;;;25.00;99.90;;;;;;1895582;75;21585;-82
2022/06/03 12:32:28;;;;;;;3.77;3.20;;;25.30;99.90;;;;;;1947153;72;22558;-82
2022/06/03 12:35:57;;;;;;;4.78;3.40;;;25.50;99.90;;;;;;1915052;75;21030;-82
2022/06/03 12:39:28;;;;;;;4.55;3.08;;;25.50;99.90;;;;;;1895679;75;21172;-82
2022/06/03 12:42:41;;;;;;;5.30;2.75;;;25.60;99.90;;;;;;1883381;75;21105;-81
2022/06/03 12:46:00;;;;;;;4.28;2.83;;;25.70;99.90;;;;;;1883213;75;21085;-82
2022/06/03 12:48:53;;;;;;;3.65;2.87;;;25.90;99.90;;;;;;1883414;75;21121;-82
2022/06/03 12:52:00;;;;;;;7.95;2.90;;;26.20;99.90;;;;;;1887461;75;21572;-82
2022/06/03 12:54:55;;;;;;;5.08;2.90;;;26.40;99.90;;;;;;1889798;75;21135;-81
2022/06/03 12:57:50;;;;;;;2.95;2.60;;;26.60;99.90;;;;;;1873337;76;21144;-82
2022/06/03 13:03:43;;;;;;;3.47;2.47;;;26.70;99.90;;;;;;1947287;72;22235;-87
2022/06/03 13:07:41;;;;;;;3.95;2.70;;;26.90;99.90;;;;;;1922543;73;21173;-88
2022/06/03 13:11:08;;;;;;;2.90;2.27;;;27.00;99.90;;;;;;1917717;75;21091;-88
2022/06/03 13:14:21;;;;;;;3.80;2.35;;;27.30;99.90;;;;;;1917354;75;21048;-88
2022/06/03 13:17:59;;;;;;;3.25;2.62;;;27.40;99.90;;;;;;1917600;75;21059;-88
2022/06/03 13:20:54;;;;;;;5.20;2.33;;;27.60;99.90;;;;;;1917642;75;21197;-87
2022/06/03 13:24:02;;;;;;;6.08;2.55;;;27.80;99.90;;;;;;1920167;73;21038;-87
2022/06/03 13:27:25;;;;;;;6.00;2.72;;;27.90;99.90;;;;;;1917349;75;21110;-88
2022/06/03 13:30:17;;;;;;;4.37;2.12;;;28.00;99.90;;;;;;1855330;77;21674;-89
2022/06/03 13:33:21;;;;;;;7.05;2.47;;;28.20;99.90;;;;;;1925085;74;21072;-88
2022/06/03 13:36:13;;;;;;;5.30;2.52;;;28.40;99.90;;;;;;1925851;74;21070;-82
2022/06/03 13:39:07;;;;;;;4.62;2.25;;;28.50;99.90;;;;;;1924742;74;21116;-82
2022/06/03 13:45:23;;;;;;;4.92;1.92;;;29.10;99.90;;;;;;1925233;74;21505;-87
2022/06/03 13:48:17;;;;;;;4.85;2.20;;;29.70;99.90;;;;;;1907611;74;21124;-88
2022/06/03 13:54:27;;;;;;;5.47;2.08;;;30.50;99.90;;;;;;1941523;72;22635;-82
2022/06/03 13:57:40;;;;;;;4.50;2.25;;;30.70;99.90;;;;;;1917664;75;21093;-82
2022/06/03 14:01:02;;;;;;;5.17;2.22;;;31.30;99.90;;;;;;1917545;75;21580;-82
2022/06/03 14:03:58;;;;;;;9.90;2.02;;;31.60;99.90;;;;;;1918403;74;21034;-82
2022/06/03 14:07:12;;;;;;;7.92;2.77;;;32.10;99.90;;;;;;1911713;74;21047;-82
2022/06/03 14:10:12;;;;;;;6.62;2.00;;;32.60;99.90;;;;;;1905834;75;21199;-82
2022/06/03 14:13:10;;;;;;;3.47;2.00;;;33.20;99.90;;;;;;1911110;74;21127;-82
2022/06/03 14:16:06;;;;;;;5.67;2.20;;;34.00;99.90;;;;;;1920084;74;21542;-82
2022/06/03 14:19:01;;;;;;;6.15;2.40;;;34.70;99.90;;;;;;1919874;74;21045;-82
2022/06/03 14:21:54;;;;;;;;;;;34.60;99.90;;;;;;1921949;74;21182;-82
2022/06/03 14:24:49;;;;;;;6.60;2.08;;;35.10;99.90;;;;;;1862029;76;20156;-83
2022/06/03 14:27:44;;;;;;;4.92;1.82;;;35.30;99.90;;;;;;1903762;74;21050;-83
2022/06/03 14:33:28;;;;;;;6.85;2.02;;;35.60;97.70;;;;;;1929508;72;22618;-83
2022/06/03 14:36:40;;;;;;;4.75;1.82;;;36.10;95.90;;;;;;1877752;75;21554;-87
2022/06/03 14:39:54;;;;;;;7.72;2.40;;;36.40;92.60;;;;;;1894507;75;21066;-87
2022/06/03 14:42:46;;;;;;;7.12;2.12;;;36.50;91.80;;;;;;1877343;75;21237;-83
2022/06/03 14:46:02;;;;;;;7.20;2.62;;;37.00;88.90;;;;;;1894530;75;21190;-83
2022/06/03 14:48:57;;;;;;;7.92;2.52;;;36.00;89.10;;;;;;1888989;73;21055;-83
2022/06/03 14:51:58;;;;;;;7.53;1.87;;;36.40;88.40;;;;;;1888448;75;21197;-82
2022/06/03 14:55:27;;;;;;;7.10;2.12;;;36.30;88.50;;;;;;1903829;74;21068;-83
2022/06/03 14:58:23;;;;;;;4.65;1.75;;;36.70;85.80;;;;;;1884075;75;21082;-84
2022/06/03 15:01:27;;;;;;;7.33;2.17;;;36.40;83.70;;;;;;1857605;77;21099;-83
2022/06/03 15:04:22;;;;;;;5.75;1.70;;;36.30;83.70;;;;;;1909095;73;21082;-84
2022/06/03 15:07:19;;;;;;;5.45;2.10;;;36.50;83.20;;;;;;1904132;75;21056;-83
2022/06/03 15:10:13;;;;;;;5.95;1.60;;;36.40;82.60;;;;;;1876466;75;21185;-83
2022/06/03 15:13:05;;;;;;;6.62;2.17;;;36.40;81.40;;;;;;1898028;75;21188;-84
2022/06/03 15:15:57;;;;;;;4.15;1.77;;;36.20;82.10;;;;;;1880896;75;21173;-84
2022/06/03 15:18:50;;;;;;;5.03;2.00;;;36.60;81.90;;;;;;1875218;75;21049;-84
2022/06/03 15:21:42;;;;;;;8.98;2.40;;;37.30;80.40;;;;;;1898349;73;21056;-88
2022/06/03 15:24:34;;;;;;;7.97;2.40;;;38.20;79.10;;;;;;1896844;73;21107;-86
2022/06/03 15:27:30;;;;;;;5.83;2.17;;;37.70;76.60;;;;;;1894994;75;21182;-88
2022/06/03 15:30:23;;;;;;;;;;;38.20;75.20;;;;;;1889565;75;21056;-87
2022/06/03 15:33:17;;;;;;;7.83;2.47;;;37.20;74.50;;;;;;1873357;75;20174;-88
2022/06/03 15:36:12;;;;;;;9.30;2.17;;;37.10;75.90;;;;;;1887881;75;21052;-88
2022/06/03 15:39:19;;;;;;;9.43;2.25;;;37.10;75.70;;;;;;1891797;75;21043;-88
2022/06/03 15:42:23;;;;;;;9.90;2.85;;;37.10;75.60;;;;;;1898311;75;21083;-87
2022/06/03 15:45:52;;;;;;;6.95;2.30;;;36.60;75.80;;;;;;1895590;75;21186;-88
2022/06/03 15:48:54;;;;;;;8.10;2.12;;;36.20;76.40;;;;;;1894336;75;21059;-88
2022/06/03 15:51:48;;;;;;;6.53;2.30;;;37.20;76.10;;;;;;1896550;75;21059;-88
2022/06/03 15:54:56;;;;;;;4.87;2.17;;;38.40;73.70;;;;;;1895673;75;21048;-89
2022/06/03 15:58:10;;;;;;;8.50;2.37;;;38.70;72.60;;;;;;1895277;75;21166;-88
2022/06/03 16:01:09;;;;;;;6.17;2.15;;;39.10;70.80;;;;;;1875421;75;21057;-88
2022/06/03 16:04:36;;;;;;;7.17;2.25;;;37.00;72.40;;;;;;1876455;75;21055;-83
2022/06/03 16:07:51;;;;;;;9.23;2.35;;;37.30;73.20;;;;;;1871759;75;21304;-84
2022/06/03 16:10:47;;;;;;;8.35;2.30;;;37.20;71.90;;;;;;1892337;75;21093;-84
2022/06/03 16:13:48;;;;;;;7.90;2.87;;;35.70;74.30;;;;;;1885407;75;21614;-83
2022/06/03 16:17:04;;;;;;;7.70;2.22;;;36.20;75.10;;;;;;1826208;77;21509;-84
2022/06/03 16:20:06;;;;;;;5.95;2.35;;;37.90;72.90;;;;;;1902887;75;21527;-83
2022/06/03 16:23:11;;;;;;;8.25;2.15;;;39.40;69.70;;;;;;1873761;75;21099;-84
2022/06/03 16:26:09;;;;;;;13.20;2.47;;;40.00;67.70;;;;;;1885364;75;21091;-87
2022/06/03 16:29:25;;;;;;;6.90;2.42;;;39.30;66.10;;;;;;1874591;75;21092;-87
2022/06/03 16:32:21;;;;;;;6.35;2.80;;;39.20;66.50;;;;;;1894893;75;21058;-87
2022/06/03 16:35:17;;;;;;;8.30;2.37;;;39.90;66.00;;;;;;1883463;75;21577;-87
2022/06/03 16:38:14;;;;;;;7.67;2.80;;;40.10;65.20;;;;;;1896328;75;21060;-87
2022/06/03 16:41:10;;;;;;;8.93;2.37;;;39.70;65.10;;;;;;1876099;76;21103;-87
2022/06/03 16:44:05;;;;;;;7.22;2.25;;;39.30;65.80;;;;;;1890381;75;21153;-87
2022/06/03 16:47:00;;;;;;;8.95;2.35;;;38.90;66.30;;;;;;1884473;75;21060;-87
2022/06/03 16:49:58;;;;;;;10.13;2.30;;;38.80;67.60;;;;;;1883452;75;21077;-86
2022/06/03 16:52:56;;;;;;;5.75;2.20;;;40.20;66.70;;;;;;1879444;75;21112;-87
2022/06/03 16:55:52;;;;;;;7.87;2.45;;;39.10;68.20;;;;;;1884877;75;21577;-87
2022/06/03 16:58:52;;;;;;;6.77;2.37;;;38.20;70.80;;;;;;1884346;75;21059;-84
2022/06/03 17:01:50;;;;;;;8.45;2.42;;;39.60;69.50;;;;;;1894936;75;21152;-85
2022/06/03 17:04:44;;;;;;;6.00;2.50;;;40.00;68.60;;;;;;1887065;75;21150;-85
2022/06/03 17:07:39;;;;;;;10.70;3.25;;;39.70;68.80;;;;;;1883918;75;21122;-84
2022/06/03 17:10:36;;;;;;;6.53;3.70;;;40.00;68.80;;;;;;1896569;73;21515;-84
2022/06/03 17:13:29;;;;;;;11.28;3.55;;;39.00;68.80;;;;;;1904612;73;21121;-85
2022/06/03 17:16:26;;;;;;;8.80;4.42;;;37.50;68.60;;;;;;1892238;75;21051;-84
2022/06/03 17:19:17;;;;;;;4.35;2.25;;;36.10;72.40;;;;;;1895414;75;21052;-84
2022/06/03 17:22:16;;;;;;;4.20;2.00;;;36.50;73.10;;;;;;1878325;75;21047;-84
2022/06/03 17:28:26;;;;;;;4.60;2.30;;;36.00;75.00;;;;;;1940849;72;22173;-83
2022/06/03 17:31:47;;;;;;;8.45;2.67;;;34.90;77.30;;;;;;1873791;76;21293;-84
2022/06/03 17:35:25;;;;;;;8.75;2.72;;;34.10;79.30;;;;;;1883036;75;21177;-83
2022/06/03 17:38:28;;;;;;;7.08;3.05;;;33.40;81.10;;;;;;1869397;75;21240;-85
2022/06/03 17:44:27;;;;;;;6.22;2.77;;;33.00;84.60;;;;;;1955917;72;22747;-84
2022/06/03 17:47:44;;;;;;;7.35;2.40;;;33.40;85.10;;;;;;1884941;75;21062;-84
2022/06/03 17:50:59;;;;;;;4.42;2.25;;;33.20;85.20;;;;;;1883047;75;21085;-84
2022/06/03 17:56:41;;;;;;;10.72;3.15;;;34.00;84.20;;;;;;1940802;72;22589;-84
2022/06/03 17:59:57;;;;;;;9.48;3.52;;;34.00;83.70;;;;;;1908345;75;21607;-85
2022/06/03 18:03:35;;;;;;;8.18;3.80;;;34.20;82.80;;;;;;1905414;75;21051;-84
2022/06/03 18:06:34;;;;;;;7.92;3.90;;;34.60;82.30;;;;;;1911039;75;21650;-85
2022/06/03 18:09:49;;;;;;;5.72;2.22;;;34.90;81.10;;;;;;1886050;73;21635;-90
2022/06/03 18:12:50;;;;;;;8.15;2.30;;;34.50;80.60;;;;;;1884673;73;21128;-79
2022/06/03 18:15:43;;;;;;;8.00;2.92;;;34.60;80.90;;;;;;1902810;75;21106;-77
2022/06/03 18:18:36;;;;;;;8.30;2.67;;;34.50;80.50;;;;;;1897689;75;21050;-81
2022/06/03 18:21:34;;;;;;;4.95;2.45;;;34.30;81.50;;;;;;1895230;75;21090;-81
2022/06/03 18:24:36;;;;;;;6.55;2.42;;;34.00;82.10;;;;;;1906415;75;21118;-79
2022/06/03 18:27:39;;;;;;;11.70;2.95;;;33.80;82.80;;;;;;1906309;75;21059;-79
2022/06/03 18:30:39;;;;;;;5.45;2.72;;;33.30;83.00;;;;;;1897262;75;21084;-78
2022/06/03 18:33:39;;;;;;;8.95;4.58;;;32.50;85.70;;;;;;1886434;75;21128;-78
2022/06/03 18:36:38;;;;;;;10.80;4.05;;;31.70;86.70;;;;;;1890632;73;21178;-85
2022/06/03 18:39:43;;;;;;;6.37;2.87;;;30.80;88.60;;;;;;1909069;75;21055;-85
2022/06/03 18:46:05;;;;;;;7.05;3.00;;;29.80;91.00;;;;;;1893427;75;21161;-86
2022/06/03 18:49:08;;;;;;;11.15;4.90;;;29.40;91.30;;;;;;1900005;75;21519;-82
2022/06/03 18:52:05;;;;;;;7.75;3.00;;;29.10;92.20;;;;;;1896057;75;21104;-82
2022/06/03 18:55:00;;;;;;;8.23;2.67;;;28.60;93.30;;;;;;1884438;75;21060;-81
2022/06/03 18:57:59;;;;;;;10.00;2.67;;;28.40;94.30;;;;;;1883155;75;21155;-82
2022/06/03 19:00:56;;;;;;;;;;;28.20;95.70;;;;;;1887543;76;21178;-86
2022/06/03 19:03:58;;;;;;;5.70;2.37;;;28.10;96.30;;;;;;1906739;75;20126;-86
2022/06/03 19:06:55;;;;;;;10.45;2.72;;;27.80;97.60;;;;;;1906576;75;21159;-82
2022/06/03 19:09:57;;;;;;;9.83;3.05;;;27.70;98.90;;;;;;1904732;75;21109;-86
2022/06/03 19:13:02;;;;;;;5.53;2.50;;;27.60;99.90;;;;;;1886385;75;21215;-85
2022/06/03 19:19:12;;;;;;;8.60;3.27;;;27.20;99.90;;;;;;1943873;72;22220;-82
2022/06/03 19:22:47;;;;;;;5.85;2.17;;;27.10;99.90;;;;;;1898984;75;21139;-81
2022/06/03 19:25:56;;;;;;;7.90;2.50;;;26.80;99.90;;;;;;1898413;75;21137;-82
2022/06/03 19:28:50;;;;;;;7.33;3.17;;;26.90;99.90;;;;;;1898215;75;21602;-81
2022/06/03 19:32:02;;;;;;;10.00;3.40;;;26.80;99.90;;;;;;1885985;75;21083;-82
2022/06/03 19:34:53;;;;;;;9.63;3.05;;;26.80;99.90;;;;;;1907140;75;21120;-82
2022/06/03 19:37:50;;;;;;;8.80;3.17;;;26.80;99.90;;;;;;1906259;75;21095;-82
2022/06/03 19:40:48;;;;;;;8.30;4.65;;;26.80;99.90;;;;;;1905030;75;21558;-83
2022/06/03 19:44:04;;;;;;;10.40;4.17;;;26.70;99.90;;;;;;1900213;75;21099;-83
2022/06/03 19:47:10;;;;;;;8.48;3.65;;;26.60;99.90;;;;;;1906922;75;21635;-86
2022/06/03 19:52:54;;;;;;;8.63;4.33;;;26.30;99.90;;;;;;1956106;72;22087;-86
2022/06/03 19:56:08;;;;;;;10.80;5.03;;;26.10;99.90;;;;;;1894567;75;21168;-85
2022/06/03 19:59:32;;;;;;;9.93;4.92;;;26.00;99.90;;;;;;1873150;76;21051;-86
2022/06/03 20:02:29;;;;;;;12.47;5.35;;;26.00;99.90;;;;;;1879988;75;21072;-85
2022/06/03 20:05:44;;;;;;;8.30;3.90;;;25.90;99.90;;;;;;1883276;75;21083;-86
2022/06/03 20:08:41;;;;;;;9.78;5.85;;;25.50;99.90;;;;;;1889695;75;21220;-86
2022/06/03 20:14:51;;;;;;;8.25;3.95;;;25.30;99.90;;;;;;1893068;75;21153;-86
2022/06/03 20:17:53;;;;;;;15.23;4.42;;;25.10;99.90;;;;;;1894624;75;21118;-86
2022/06/03 20:20:55;;;;;;;8.95;3.87;;;25.10;99.90;;;;;;1895023;75;21125;-86
2022/06/03 20:23:55;;;;;;;11.53;3.80;;;24.90;99.90;;;;;;1894726;75;21093;-86
2022/06/03 20:26:55;;;;;;;8.05;3.45;;;24.80;99.90;;;;;;1873090;76;21098;-86
2022/06/03 20:32:59;;;;;;;12.95;4.40;;;24.90;99.90;;;;;;1948395;72;22093;-86
2022/06/03 20:36:16;;;;;;;9.28;4.15;;;24.80;99.90;;;;;;1931618;73;21092;-83
2022/06/03 20:39:40;;;;;;;12.18;6.00;;;24.60;99.90;;;;;;1935412;73;21534;-83
2022/06/03 20:42:35;;;;;;;9.55;5.10;;;24.60;99.90;;;;;;1917590;75;21099;-83
2022/06/03 20:45:50;;;;;;;11.63;5.83;;;24.60;99.90;;;;;;1917155;73;21122;-83
2022/06/03 20:48:47;;;;;;;11.60;4.27;;;24.50;99.90;;;;;;1917908;75;21054;-83